LIPY/AOI METAR and TAF weather

Enter ICAO airport designator
Station Type Date Time Source
LIPY METAR 2019/08/22 03:57 UTC NOAA

LIPY 220357Z 16003KT 9999 FEW040 23/21 Q1018


Station Type Date Time Source
LIPY Decoded METAR 2019/08/22 03:57 UTC NOAA

Station name not available
Aug 21, 2019 - 11:57 PM EDT / 2019.08.22 0357 UTC
Wind: from the SSE (160 degrees) at 3 MPH (3 KT):0
Visibility: greater than 7 mile(s):0
Sky conditions: mostly clear
Temperature: 73 F (23 C)
Dew Point: 69 F (21 C)
Relative Humidity: 88%
Pressure (altimeter): 30.06 in. Hg (1018 hPa)
ob: LIPY 220357Z 16003KT 9999 FEW040 23/21 Q1018
cycle: 4

Station Type Date Time Source
LIPY TAF 2019/08/21 18:26 UTC NOAA

TAF LIPY 211700Z 2118/2218 VRB05KT CAVOK
BECMG 2210/2212 04010KT
TEMPO 2215/2218 4000 SHRA

Example: see airport list